Coraopolis, PA

7:00 PM EDT on July 29, 2016 (GMT -0400)
Moon Township | | Change Station

Elev 1073 ft 40.52 °N, 80.20 °W | Updated 8 minutes ago

Scattered Clouds
Scattered Clouds
84.5 °F
Feels Like 86 °F
N
0.0
Wind Variable Wind from North

Today
High -- | Low -- °F
--% Chance of Precip.
Yesterday
High -- | Low -- °F
Precip. -- in
Pressure 29.92 in
Visibility 10.0 miles
Clouds Few 4000 ft
Scattered Clouds 25000 ft
Heat Index 86 °F
Dew Point 64 °F
Humidity 51%
Rainfall Not available.
Snow Depth Not available.
6:15 AM 8:38 PM
Waning Crescent, 18% visible
METAR KPIT 292251Z VRB03KT 10SM FEW040 SCT250 29/16 A2993 RMK AO2 SLP132 T02890161 $
Pressure 29.92 in
Visibility 10.0 miles
Clouds Few 4000 ft
Scattered Clouds 25000 ft
Heat Index 86 °F
Dew Point 64 °F
Humidity 51%
Rainfall Not available.
Snow Depth Not available.
6:15 AM 8:38 PM
Waning Crescent, 18% visible
METAR KPIT 292251Z VRB03KT 10SM FEW040 SCT250 29/16 A2993 RMK AO2 SLP132 T02890161 $

10-Day Weather Forecast

Almanac

Astronomy

Jul. 29, 2016 Rise Set
Actual Time
Civil Twilight
Nautical Twilight
Astronomical Twilight
Moon
Length of Visible Light
Length of Day
Tomorrow will be .
, % of the Moon is Illuminated

Today's Extremes

State Highs State Lows

Community

WunderPhotos

Upload Photos

1,928,436 photos uploaded!

WunderBlog® & News

Nearby

Air Quality

  Air Quality AQ Index Pollutant
Not available.

Snow Depth

Station Depth Elevation

Earthquake Activity

City Distance Mag. Time & Date
Minimum magnitude displayed is 2.5.

Coastal Water Temperatures

Place Temperature

Stations

Nearby Weather Stations

Station Location Temp. Windchill Dew Point Humidity Wind Precip. Elev Updated Type
                   

Watches & Warnings

There are currently no watches in effect.